Time;durP1;ratioP1;P1;durP2;ratioP2;P2;SDS_P1;SDS_P2;PMS_P1;PMS_P2;Temp;Humidity;BMP_temperature;BMP_pressure;BME280_temperature;BME280_humidity;BME280_pressure;Samples;Min_cycle;Max_cycle;Signal;HPM_P1;HPM_P2
2021/12/09 00:00:46;;;;;;;38.25;26.50;;;;;;;;;;1894871;74;21185;-78
2021/12/09 00:03:13;;;;;;;39.42;26.80;;;;;;;;;;1893937;74;21098;-80
2021/12/09 00:05:44;;;;;;;35.83;26.15;;;;;;;;;;1888990;74;21174;-79
2021/12/09 00:08:15;;;;;;;37.80;25.15;;;;;;;;;;1892326;74;21166;-79
2021/12/09 00:10:44;;;;;;;38.85;25.62;;;;;;;;;;1891145;74;21224;-79
2021/12/09 00:13:15;;;;;;;39.38;25.92;;;;;;;;;;1893588;74;21081;-79
2021/12/09 00:15:45;;;;;;;37.50;24.27;;;;;;;;;;1894614;74;21091;-79
2021/12/09 00:18:15;;;;;;;33.98;25.05;;;;;;;;;;1897167;74;21072;-78
2021/12/09 00:20:45;;;;;;;37.10;25.50;;;;;;;;;;1891226;74;21197;-78
2021/12/09 00:23:16;;;;;;;34.85;23.65;;;;;;;;;;1896992;74;21179;-78
2021/12/09 00:25:46;;;;;;;36.83;26.73;;;;;;;;;;1893962;74;21182;-79
2021/12/09 00:28:16;;;;;;;42.65;27.77;;;;;;;;;;1893005;74;21149;-80
2021/12/09 00:30:46;;;;;;;39.38;27.67;;;;;;;;;;1896915;74;21193;-81
2021/12/09 00:33:17;;;;;;;35.43;25.15;;;;;;;;;;1889896;74;21162;-81
2021/12/09 00:35:59;;;;;;;37.13;25.88;;;;;;;;;;1894438;74;22016;-79
2021/12/09 00:38:22;;;;;;;35.95;25.00;;;;;;;;;;1837652;76;21693;-80
2021/12/09 00:40:50;;;;;;;35.40;25.30;;;;;;;;;;1884601;75;21092;-82
2021/12/09 00:43:22;;;;;;;39.63;24.90;;;;;;;;;;1884217;75;21149;-83
2021/12/09 00:45:52;;;;;;;32.05;23.83;;;;;;;;;;1883380;75;21244;-83
2021/12/09 00:48:22;;;;;;;35.90;25.12;;;;;;;;;;1883878;75;21123;-82
2021/12/09 00:50:53;;;;;;;46.95;26.85;;;;;;;;;;1882447;75;21147;-84
2021/12/09 00:53:23;;;;;;;35.92;24.82;;;;;;;;;;1881535;75;21629;-83
2021/12/09 00:55:54;;;;;;;33.53;24.02;;;;;;;;;;1883525;75;21365;-82
2021/12/09 00:58:24;;;;;;;35.63;23.95;;;;;;;;;;1885156;75;21182;-83
2021/12/09 01:00:54;;;;;;;34.50;23.57;;;;;;;;;;1889599;75;21688;-81
2021/12/09 01:03:24;;;;;;;34.83;22.75;;;;;;;;;;1887028;75;21261;-82
2021/12/09 01:05:54;;;;;;;36.13;22.77;;;;;;;;;;1888646;75;21167;-82
2021/12/09 01:08:26;;;;;;;34.10;22.75;;;;;;;;;;1880927;75;21161;-82
2021/12/09 01:10:56;;;;;;;30.27;20.50;;;;;;;;;;1881733;75;21284;-81
2021/12/09 01:13:26;;;;;;;30.25;21.17;;;;;;;;;;1883077;75;21115;-81
2021/12/09 01:15:56;;;;;;;35.50;21.45;;;;;;;;;;1880659;75;21846;-82
2021/12/09 01:18:26;;;;;;;30.80;20.75;;;;;;;;;;1882994;75;21585;-80
2021/12/09 01:20:57;;;;;;;36.90;19.35;;;;;;;;;;1882332;75;21209;-80
2021/12/09 01:23:27;;;;;;;28.17;19.87;;;;;;;;;;1883120;75;21182;-80
2021/12/09 01:26:01;;;;;;;29.65;18.37;;;;;;;;;;1881676;75;21138;-81
2021/12/09 01:28:33;;;;;;;28.75;21.20;;;;;;;;;;1883760;75;21682;-80
2021/12/09 01:31:03;;;;;;;28.70;20.23;;;;;;;;;;1884178;75;21185;-81
2021/12/09 01:33:33;;;;;;;28.62;19.10;;;;;;;;;;1879827;75;21126;-80
2021/12/09 01:36:04;;;;;;;33.42;19.00;;;;;;;;;;1885758;75;21590;-82
2021/12/09 01:38:34;;;;;;;27.37;18.98;;;;;;;;;;1882667;75;21604;-80
2021/12/09 01:41:04;;;;;;;29.90;19.07;;;;;;;;;;1879606;75;21162;-79
2021/12/09 01:43:34;;;;;;;26.95;18.55;;;;;;;;;;1882959;75;21271;-81
2021/12/09 01:46:06;;;;;;;25.10;16.75;;;;;;;;;;1885883;75;21101;-81
2021/12/09 01:48:37;;;;;;;28.15;18.20;;;;;;;;;;1879529;75;21192;-79
2021/12/09 01:51:08;;;;;;;24.75;17.40;;;;;;;;;;1880645;75;21170;-81
2021/12/09 01:53:38;;;;;;;28.98;18.37;;;;;;;;;;1883949;75;21079;-80
2021/12/09 01:56:10;;;;;;;24.57;17.15;;;;;;;;;;1883580;75;21658;-81
2021/12/09 01:58:40;;;;;;;24.50;16.25;;;;;;;;;;1882572;75;21115;-82
2021/12/09 02:01:10;;;;;;;26.23;16.65;;;;;;;;;;1879909;75;21060;-80
2021/12/09 02:03:41;;;;;;;22.07;16.60;;;;;;;;;;1881297;75;21154;-81
2021/12/09 02:06:11;;;;;;;25.85;16.85;;;;;;;;;;1879246;75;21178;-80
2021/12/09 02:08:42;;;;;;;23.75;16.27;;;;;;;;;;1882604;75;21219;-80
2021/12/09 02:11:13;;;;;;;24.20;16.10;;;;;;;;;;1880276;75;21123;-80
2021/12/09 02:13:43;;;;;;;24.80;15.93;;;;;;;;;;1884029;75;21710;-79
2021/12/09 02:16:14;;;;;;;25.77;14.98;;;;;;;;;;1885952;75;21174;-80
2021/12/09 02:18:44;;;;;;;21.25;15.23;;;;;;;;;;1881808;75;21194;-79
2021/12/09 02:21:16;;;;;;;20.77;15.63;;;;;;;;;;1873538;75;21227;-79
2021/12/09 02:23:47;;;;;;;29.45;15.43;;;;;;;;;;1873760;75;21140;-81
2021/12/09 02:26:18;;;;;;;23.05;15.70;;;;;;;;;;1874810;75;21165;-82
2021/12/09 02:28:49;;;;;;;20.62;15.20;;;;;;;;;;1808280;78;21597;-81
2021/12/09 02:31:20;;;;;;;25.90;17.25;;;;;;;;;;1838513;77;21637;-81
2021/12/09 02:33:50;;;;;;;20.80;15.25;;;;;;;;;;1876241;75;21193;-80
2021/12/09 02:36:23;;;;;;;25.90;14.87;;;;;;;;;;1873684;75;21244;-80
2021/12/09 02:38:54;;;;;;;31.07;17.30;;;;;;;;;;1878356;75;21170;-80
2021/12/09 02:41:25;;;;;;;22.32;15.68;;;;;;;;;;1882762;74;21598;-82
2021/12/09 02:43:56;;;;;;;19.15;14.60;;;;;;;;;;1882423;75;22111;-78
2021/12/09 02:46:27;;;;;;;20.37;14.20;;;;;;;;;;1885137;74;21134;-80
2021/12/09 02:48:57;;;;;;;18.52;14.18;;;;;;;;;;1881295;74;21161;-81
2021/12/09 02:51:27;;;;;;;21.33;14.58;;;;;;;;;;1878565;74;22106;-81
2021/12/09 02:53:57;;;;;;;16.67;14.10;;;;;;;;;;1877991;74;21199;-79
2021/12/09 02:56:27;;;;;;;27.02;15.45;;;;;;;;;;1877645;74;21158;-81
2021/12/09 02:58:57;;;;;;;22.13;14.93;;;;;;;;;;1878407;74;21784;-80
2021/12/09 03:01:28;;;;;;;21.75;14.75;;;;;;;;;;1877896;74;21130;-81
2021/12/09 03:04:00;;;;;;;25.02;14.25;;;;;;;;;;1882598;74;21244;-82
2021/12/09 03:06:32;;;;;;;21.70;13.98;;;;;;;;;;1881714;74;21182;-80
2021/12/09 03:09:03;;;;;;;19.42;13.45;;;;;;;;;;1876188;74;21157;-83
2021/12/09 03:11:34;;;;;;;20.17;13.20;;;;;;;;;;1877635;75;21139;-82
2021/12/09 03:14:04;;;;;;;22.50;13.88;;;;;;;;;;1877172;74;21153;-82
2021/12/09 03:16:34;;;;;;;23.00;14.28;;;;;;;;;;1877732;74;21166;-82
2021/12/09 03:19:06;;;;;;;20.25;13.83;;;;;;;;;;1879207;74;21243;-83
2021/12/09 03:21:37;;;;;;;17.92;12.68;;;;;;;;;;1879611;74;21078;-82
2021/12/09 03:24:08;;;;;;;20.45;13.55;;;;;;;;;;1878207;74;21058;-81
2021/12/09 03:26:40;;;;;;;18.37;12.37;;;;;;;;;;1881087;74;21212;-82
2021/12/09 03:29:11;;;;;;;19.90;12.50;;;;;;;;;;1877427;74;21157;-82
2021/12/09 03:31:42;;;;;;;17.92;11.53;;;;;;;;;;1815130;77;21152;-81
2021/12/09 03:34:14;;;;;;;14.40;9.98;;;;;;;;;;1804321;78;21671;-81
2021/12/09 03:36:44;;;;;;;13.53;8.78;;;;;;;;;;1831392;77;21250;-82
2021/12/09 03:39:16;;;;;;;9.63;7.08;;;;;;;;;;1834747;77;21231;-81
2021/12/09 03:41:48;;;;;;;10.15;6.55;;;;;;;;;;1836623;77;21169;-81
2021/12/09 03:44:18;;;;;;;13.05;6.78;;;;;;;;;;1841431;77;21161;-82
2021/12/09 03:46:49;;;;;;;13.13;7.15;;;;;;;;;;1853720;77;21111;-82
2021/12/09 03:49:20;;;;;;;15.68;7.12;;;;;;;;;;1816077;77;21181;-82
2021/12/09 03:51:50;;;;;;;34.92;7.92;;;;;;;;;;1841208;77;21126;-83
2021/12/09 03:54:20;;;;;;;16.55;7.10;;;;;;;;;;1836301;77;21602;-81
2021/12/09 03:56:50;;;;;;;9.58;6.28;;;;;;;;;;1835934;77;21130;-82
2021/12/09 03:59:20;;;;;;;8.65;5.95;;;;;;;;;;1837049;77;21103;-81
2021/12/09 04:01:51;;;;;;;6.72;4.58;;;;;;;;;;1836643;77;21181;-82
2021/12/09 04:04:21;;;;;;;5.75;4.28;;;;;;;;;;1849773;77;21110;-80
2021/12/09 04:06:55;;;;;;;6.10;4.05;;;;;;;;;;1810104;78;21150;-81
2021/12/09 04:09:25;;;;;;;9.00;4.58;;;;;;;;;;1805115;78;21265;-81
2021/12/09 04:11:55;;;;;;;46.68;6.20;;;;;;;;;;1818889;78;21171;-81
2021/12/09 04:14:26;;;;;;;6.08;3.58;;;;;;;;;;1849983;77;21228;-80
2021/12/09 04:16:56;;;;;;;7.70;4.00;;;;;;;;;;1804479;78;21143;-82
2021/12/09 04:19:26;;;;;;;7.40;3.67;;;;;;;;;;1815867;77;21094;-78
2021/12/09 04:21:56;;;;;;;8.15;4.05;;;;;;;;;;1820086;79;21224;-80
2021/12/09 04:24:27;;;;;;;14.65;4.05;;;;;;;;;;1817043;79;21178;-80
2021/12/09 04:26:57;;;;;;;7.97;3.80;;;;;;;;;;1821140;79;21166;-80
2021/12/09 04:29:27;;;;;;;10.88;4.72;;;;;;;;;;1841241;77;21064;-80
2021/12/09 04:31:57;;;;;;;6.45;4.33;;;;;;;;;;1849111;76;21141;-80
2021/12/09 04:34:27;;;;;;;6.33;4.55;;;;;;;;;;1818860;78;21610;-81
2021/12/09 04:36:58;;;;;;;8.15;4.40;;;;;;;;;;1837222;77;21684;-81
2021/12/09 04:39:29;;;;;;;8.15;4.28;;;;;;;;;;1853975;76;21108;-81
2021/12/09 04:41:59;;;;;;;5.55;3.87;;;;;;;;;;1872291;76;21158;-81
2021/12/09 04:44:30;;;;;;;9.03;3.80;;;;;;;;;;1848855;77;21653;-81
2021/12/09 04:47:01;;;;;;;6.47;4.08;;;;;;;;;;1818873;79;21540;-83
2021/12/09 04:49:31;;;;;;;5.17;3.83;;;;;;;;;;1817177;77;21164;-80
2021/12/09 04:52:02;;;;;;;6.05;3.60;;;;;;;;;;1818269;78;21651;-81
2021/12/09 04:54:32;;;;;;;10.13;4.42;;;;;;;;;;1824569;78;21190;-80
2021/12/09 04:57:03;;;;;;;6.95;3.10;;;;;;;;;;1849736;76;21151;-80
2021/12/09 04:59:33;;;;;;;9.60;3.92;;;;;;;;;;1857222;76;21162;-79
2021/12/09 05:02:07;;;;;;;5.05;3.37;;;;;;;;;;1850427;76;21147;-79
2021/12/09 05:04:36;;;;;;;6.50;3.60;;;;;;;;;;1856920;76;21131;-81
2021/12/09 05:07:06;;;;;;;6.70;3.55;;;;;;;;;;1816812;79;21134;-80
2021/12/09 05:09:39;;;;;;;6.33;3.37;;;;;;;;;;1819645;78;21225;-80
2021/12/09 05:12:08;;;;;;;6.20;3.22;;;;;;;;;;1853543;76;21143;-80
2021/12/09 05:14:38;;;;;;;6.05;3.52;;;;;;;;;;1849051;76;21544;-80
2021/12/09 05:17:08;;;;;;;7.30;3.98;;;;;;;;;;1807838;78;21123;-81
2021/12/09 05:19:38;;;;;;;4.92;3.33;;;;;;;;;;1818083;78;21139;-81
2021/12/09 05:22:09;;;;;;;5.00;3.22;;;;;;;;;;1811125;79;22432;-80
2021/12/09 05:24:40;;;;;;;7.33;3.55;;;;;;;;;;1816389;77;21213;-81
2021/12/09 05:27:13;;;;;;;6.28;3.42;;;;;;;;;;1822484;78;21536;-82
2021/12/09 05:29:43;;;;;;;7.05;3.65;;;;;;;;;;1819616;77;21152;-81
2021/12/09 05:32:16;;;;;;;7.50;3.08;;;;;;;;;;1816950;78;21087;-82
2021/12/09 05:34:46;;;;;;;4.78;3.17;;;;;;;;;;1852325;76;21274;-79
2021/12/09 05:37:18;;;;;;;6.53;3.20;;;;;;;;;;1842089;77;21155;-81
2021/12/09 05:39:48;;;;;;;9.55;4.35;;;;;;;;;;1843355;77;21165;-80
2021/12/09 05:42:20;;;;;;;6.78;3.27;;;;;;;;;;1809022;78;21090;-83
2021/12/09 05:44:50;;;;;;;5.70;3.27;;;;;;;;;;1830944;77;21736;-80
2021/12/09 05:47:20;;;;;;;7.67;3.47;;;;;;;;;;1828101;78;21292;-80
2021/12/09 05:49:52;;;;;;;7.15;3.20;;;;;;;;;;1831088;77;21231;-82
2021/12/09 05:52:22;;;;;;;6.47;3.20;;;;;;;;;;1831985;77;21276;-81
2021/12/09 05:54:52;;;;;;;9.00;3.30;;;;;;;;;;1824762;78;21208;-81
2021/12/09 05:57:22;;;;;;;4.53;2.95;;;;;;;;;;1826171;78;21150;-80
2021/12/09 05:59:54;;;;;;;11.50;2.95;;;;;;;;;;1827130;78;21227;-80
2021/12/09 06:02:26;;;;;;;4.20;2.77;;;;;;;;;;1794896;78;21157;-80
2021/12/09 06:04:55;;;;;;;4.67;2.33;;;;;;;;;;1828009;77;21170;-83
2021/12/09 06:07:25;;;;;;;4.53;2.52;;;;;;;;;;1806395;78;21103;-83
2021/12/09 06:09:56;;;;;;;3.92;2.35;;;;;;;;;;1834090;78;21200;-84
2021/12/09 06:12:27;;;;;;;4.85;2.42;;;;;;;;;;1846255;77;21180;-82
2021/12/09 06:15:02;;;;;;;4.92;2.47;;;;;;;;;;1836169;78;21157;-82
2021/12/09 06:17:31;;;;;;;6.55;2.58;;;;;;;;;;1810041;77;21150;-81
2021/12/09 06:20:02;;;;;;;3.87;2.22;;;;;;;;;;1827482;78;21280;-83
2021/12/09 06:22:32;;;;;;;4.08;2.20;;;;;;;;;;1827508;78;21092;-82
2021/12/09 06:25:02;;;;;;;6.72;2.20;;;;;;;;;;1828354;78;21150;-81
2021/12/09 06:27:32;;;;;;;4.10;2.20;;;;;;;;;;1825579;78;21248;-81
2021/12/09 06:30:02;;;;;;;11.28;2.75;;;;;;;;;;1824388;78;21251;-81
2021/12/09 06:32:32;;;;;;;14.20;2.95;;;;;;;;;;1827016;78;21143;-80
2021/12/09 06:35:04;;;;;;;7.83;2.65;;;;;;;;;;1832202;78;21727;-80
2021/12/09 06:37:38;;;;;;;5.92;2.40;;;;;;;;;;1811651;78;21237;-81
2021/12/09 06:40:07;;;;;;;3.25;2.12;;;;;;;;;;1833798;78;21270;-80
2021/12/09 06:42:37;;;;;;;5.95;2.65;;;;;;;;;;1817634;78;21208;-82
2021/12/09 06:45:08;;;;;;;7.28;2.27;;;;;;;;;;1827085;78;21071;-82
2021/12/09 06:47:39;;;;;;;5.17;2.20;;;;;;;;;;1828053;78;21122;-81
2021/12/09 06:50:09;;;;;;;5.70;2.50;;;;;;;;;;1798425;78;21134;-82
2021/12/09 06:52:40;;;;;;;5.30;2.42;;;;;;;;;;1868268;76;21125;-81
2021/12/09 06:55:11;;;;;;;10.48;3.67;;;;;;;;;;1866566;76;21397;-81
2021/12/09 06:57:43;;;;;;;4.08;2.22;;;;;;;;;;1864925;76;21626;-79
2021/12/09 07:00:14;;;;;;;7.65;2.10;;;;;;;;;;1856970;75;21153;-80
2021/12/09 07:02:45;;;;;;;6.97;2.58;;;;;;;;;;1861869;76;21139;-80
2021/12/09 07:05:17;;;;;;;4.87;2.67;;;;;;;;;;1846248;76;21268;-81
2021/12/09 07:07:47;;;;;;;5.10;2.40;;;;;;;;;;1857925;75;21836;-82
2021/12/09 07:10:18;;;;;;;5.60;2.55;;;;;;;;;;1863799;76;21151;-82
2021/12/09 07:12:48;;;;;;;5.20;3.20;;;;;;;;;;1869867;76;21055;-80
2021/12/09 07:15:19;;;;;;;6.70;2.75;;;;;;;;;;1865273;76;21123;-82
2021/12/09 07:17:49;;;;;;;5.55;2.47;;;;;;;;;;1869968;76;21625;-82
2021/12/09 07:20:27;;;;;;;6.33;2.70;;;;;;;;;;1876651;76;21224;-82
2021/12/09 07:22:53;;;;;;;4.42;2.30;;;;;;;;;;1867081;75;21130;-82
2021/12/09 07:25:24;;;;;;;5.80;2.40;;;;;;;;;;1861889;75;21128;-82
2021/12/09 07:27:54;;;;;;;4.25;2.47;;;;;;;;;;1851658;77;21079;-81
2021/12/09 07:30:28;;;;;;;5.55;2.37;;;;;;;;;;1855879;76;21099;-82
2021/12/09 07:32:58;;;;;;;8.40;3.17;;;;;;;;;;1853023;76;21126;-82
2021/12/09 07:35:30;;;;;;;5.95;2.62;;;;;;;;;;1858001;76;21119;-82
2021/12/09 07:38:01;;;;;;;5.78;2.80;;;;;;;;;;1854142;76;21223;-82
2021/12/09 07:40:34;;;;;;;8.13;2.62;;;;;;;;;;1853061;75;22586;-82
2021/12/09 07:43:05;;;;;;;7.35;3.30;;;;;;;;;;1858994;75;21135;-83
2021/12/09 07:45:36;;;;;;;6.50;4.03;;;;;;;;;;1853311;77;21668;-83
2021/12/09 07:48:06;;;;;;;7.55;2.98;;;;;;;;;;1858111;76;21188;-82
2021/12/09 07:50:36;;;;;;;7.22;2.75;;;;;;;;;;1851703;75;21075;-81
2021/12/09 07:53:07;;;;;;;6.12;2.70;;;;;;;;;;1857547;76;21193;-82
2021/12/09 07:55:37;;;;;;;7.45;3.08;;;;;;;;;;1852453;77;21161;-81
2021/12/09 07:58:07;;;;;;;7.25;2.87;;;;;;;;;;1853476;75;21122;-82
2021/12/09 08:01:12;;;;;;;5.22;2.30;;;;;;;;;;1854240;76;21191;-83
2021/12/09 08:03:25;;;;;;;8.15;2.80;;;;;;;;;;1852008;76;21096;-82
2021/12/09 08:05:55;;;;;;;6.55;2.92;;;;;;;;;;1859764;76;21068;-82
2021/12/09 08:08:25;;;;;;;7.70;2.62;;;;;;;;;;1854817;76;21521;-81
2021/12/09 08:10:55;;;;;;;10.43;2.85;;;;;;;;;;1860235;77;21076;-82
2021/12/09 08:13:27;;;;;;;9.00;2.37;;;;;;;;;;1858494;76;21099;-82
2021/12/09 08:15:58;;;;;;;15.85;3.25;;;;;;;;;;1861510;75;21152;-82
2021/12/09 08:18:32;;;;;;;11.00;2.62;;;;;;;;;;1853329;76;21113;-83
2021/12/09 08:21:01;;;;;;;6.17;2.80;;;;;;;;;;1864295;76;21154;-82
2021/12/09 08:23:31;;;;;;;5.25;2.65;;;;;;;;;;1864060;77;21202;-82
2021/12/09 08:26:02;;;;;;;5.83;2.35;;;;;;;;;;1854178;76;21703;-81
2021/12/09 08:28:37;;;;;;;7.87;3.00;;;;;;;;;;1846221;77;21630;-83
2021/12/09 08:31:14;;;;;;;6.65;2.80;;;;;;;;;;1857147;76;21142;-82
2021/12/09 08:33:45;;;;;;;5.70;2.70;;;;;;;;;;1855523;75;21184;-83
2021/12/09 08:36:29;;;;;;;7.58;2.60;;;;;;;;;;1856950;75;21263;-82
2021/12/09 08:38:59;;;;;;;10.10;3.15;;;;;;;;;;1862365;76;21119;-82
2021/12/09 08:41:29;;;;;;;10.82;2.98;;;;;;;;;;1852366;76;21248;-82
2021/12/09 08:43:59;;;;;;;6.10;2.50;;;;;;;;;;1860628;76;21130;-83
2021/12/09 08:46:30;;;;;;;10.80;3.10;;;;;;;;;;1867498;76;21244;-83
2021/12/09 08:49:00;;;;;;;7.62;4.65;;;;;;;;;;1868704;75;21161;-82
2021/12/09 08:51:30;;;;;;;7.47;3.10;;;;;;;;;;1859583;76;21189;-83
2021/12/09 08:54:00;;;;;;;7.30;2.52;;;;;;;;;;1867631;76;21130;-82
2021/12/09 08:56:30;;;;;;;9.23;2.85;;;;;;;;;;1864666;77;21115;-83
2021/12/09 08:59:03;;;;;;;6.50;2.30;;;;;;;;;;1839334;76;21143;-83
2021/12/09 09:01:34;;;;;;;5.70;2.47;;;;;;;;;;1837228;76;21138;-83
2021/12/09 09:04:04;;;;;;;7.20;2.55;;;;;;;;;;1865049;77;21154;-83
2021/12/09 09:06:36;;;;;;;10.43;2.60;;;;;;;;;;1862145;75;21154;-83
2021/12/09 09:09:06;;;;;;;5.03;2.40;;;;;;;;;;1843311;76;22365;-82
2021/12/09 09:11:36;;;;;;;7.85;2.83;;;;;;;;;;1855837;75;21063;-82
2021/12/09 09:14:06;;;;;;;11.57;3.12;;;;;;;;;;1867018;76;21511;-83
2021/12/09 09:16:38;;;;;;;10.03;3.02;;;;;;;;;;1867060;76;21174;-81
2021/12/09 09:19:07;;;;;;;10.20;3.30;;;;;;;;;;1865644;76;21126;-82
2021/12/09 09:21:38;;;;;;;26.35;5.50;;;;;;;;;;1866264;77;21141;-81
2021/12/09 09:24:08;;;;;;;19.48;4.28;;;;;;;;;;1864738;77;21066;-81
2021/12/09 09:26:38;;;;;;;10.80;3.08;;;;;;;;;;1864885;76;21589;-81
2021/12/09 09:29:09;;;;;;;7.03;2.52;;;;;;;;;;1863668;77;21236;-81
2021/12/09 09:31:40;;;;;;;13.13;3.83;;;;;;;;;;1864394;76;21068;-81
2021/12/09 09:34:12;;;;;;;9.23;4.95;;;;;;;;;;1870032;76;21087;-81
2021/12/09 09:36:44;;;;;;;19.70;5.90;;;;;;;;;;1867867;76;21583;-81
2021/12/09 09:39:18;;;;;;;9.45;4.58;;;;;;;;;;1875738;76;21157;-81
2021/12/09 09:41:54;;;;;;;13.70;5.10;;;;;;;;;;1877776;75;21878;-81
2021/12/09 09:44:21;;;;;;;9.95;4.10;;;;;;;;;;1875944;76;21228;-82
2021/12/09 09:46:50;;;;;;;8.63;2.87;;;;;;;;;;1856194;76;21141;-82
2021/12/09 09:49:20;;;;;;;7.37;3.33;;;;;;;;;;1831791;76;21121;-82
2021/12/09 09:51:52;;;;;;;10.30;3.22;;;;;;;;;;1855139;76;21763;-81
2021/12/09 09:54:22;;;;;;;8.83;2.65;;;;;;;;;;1846870;77;21224;-81
2021/12/09 09:56:52;;;;;;;10.50;4.53;;;;;;;;;;1864060;77;21155;-81
2021/12/09 09:59:23;;;;;;;13.98;4.60;;;;;;;;;;1852825;75;21077;-81
2021/12/09 10:01:55;;;;;;;13.40;6.10;;;;;;;;;;1861696;76;21147;-81
2021/12/09 10:04:33;;;;;;;10.95;6.58;;;;;;;;;;1855375;76;21178;-80
2021/12/09 10:06:57;;;;;;;8.88;3.77;;;;;;;;;;1850178;77;21853;-79
2021/12/09 10:09:27;;;;;;;7.35;3.85;;;;;;;;;;1859126;76;21143;-79
2021/12/09 10:11:59;;;;;;;10.28;4.62;;;;;;;;;;1861967;76;21192;-80
2021/12/09 10:14:32;;;;;;;9.00;4.75;;;;;;;;;;1865031;75;21184;-81
2021/12/09 10:17:03;;;;;;;13.50;6.60;;;;;;;;;;1863445;77;21559;-82
2021/12/09 10:19:33;;;;;;;15.05;8.10;;;;;;;;;;1862985;77;21157;-82
2021/12/09 10:22:05;;;;;;;16.95;8.38;;;;;;;;;;1857401;76;21216;-81
2021/12/09 10:24:35;;;;;;;17.42;10.30;;;;;;;;;;1863884;77;21146;-82
2021/12/09 10:27:06;;;;;;;12.00;5.33;;;;;;;;;;1861903;76;21154;-82
2021/12/09 10:29:42;;;;;;;10.95;4.58;;;;;;;;;;1852422;76;21146;-82
2021/12/09 10:32:11;;;;;;;10.38;4.20;;;;;;;;;;1874568;75;21111;-81
2021/12/09 10:34:42;;;;;;;8.65;3.45;;;;;;;;;;1850320;77;21583;-81
2021/12/09 10:37:12;;;;;;;7.30;3.30;;;;;;;;;;1844667;77;21154;-81
2021/12/09 10:39:43;;;;;;;8.38;3.37;;;;;;;;;;1864560;77;21170;-80
2021/12/09 10:42:14;;;;;;;6.62;3.20;;;;;;;;;;1857206;76;21095;-80
2021/12/09 10:44:44;;;;;;;6.80;2.35;;;;;;;;;;1857726;75;21298;-82
2021/12/09 10:47:22;;;;;;;6.67;3.02;;;;;;;;;;1835413;77;21138;-82
2021/12/09 10:49:52;;;;;;;6.53;2.45;;;;;;;;;;1869224;75;21664;-81
2021/12/09 10:52:21;;;;;;;7.58;2.90;;;;;;;;;;1846865;76;21067;-81
2021/12/09 10:54:52;;;;;;;6.30;2.98;;;;;;;;;;1862132;77;21162;-81
2021/12/09 10:57:23;;;;;;;8.95;2.92;;;;;;;;;;1842726;77;21166;-81
2021/12/09 10:59:55;;;;;;;4.90;2.65;;;;;;;;;;1861683;76;21127;-80
2021/12/09 11:02:25;;;;;;;8.20;3.00;;;;;;;;;;1846721;76;21142;-81
2021/12/09 11:04:56;;;;;;;6.00;2.90;;;;;;;;;;1864897;75;21578;-81
2021/12/09 11:07:32;;;;;;;9.15;2.90;;;;;;;;;;1861235;77;21139;-82
2021/12/09 11:09:59;;;;;;;5.33;2.50;;;;;;;;;;1868171;77;21617;-82
2021/12/09 11:12:29;;;;;;;4.10;2.22;;;;;;;;;;1851626;76;21123;-81
2021/12/09 11:15:02;;;;;;;6.30;1.90;;;;;;;;;;1864142;76;21727;-81
2021/12/09 11:17:45;;;;;;;8.33;2.37;;;;;;;;;;1863978;76;21200;-81
2021/12/09 11:20:14;;;;;;;4.83;2.05;;;;;;;;;;1833209;78;21531;-81
2021/12/09 11:22:45;;;;;;;3.70;1.77;;;;;;;;;;1841630;75;22434;-80
2021/12/09 11:25:27;;;;;;;5.95;2.30;;;;;;;;;;1841015;76;21163;-82
2021/12/09 11:28:03;;;;;;;8.55;2.42;;;;;;;;;;1861907;76;21630;-81
2021/12/09 11:30:34;;;;;;;4.37;2.37;;;;;;;;;;1861392;77;21147;-80
2021/12/09 11:33:14;;;;;;;6.15;2.58;;;;;;;;;;1863522;76;21135;-81
2021/12/09 11:35:43;;;;;;;8.08;2.80;;;;;;;;;;1863024;76;21146;-81
2021/12/09 11:38:33;;;;;;;5.12;2.50;;;;;;;;;;1863227;76;21656;-81
2021/12/09 11:40:51;;;;;;;6.83;3.08;;;;;;;;;;1859759;75;21507;-81
2021/12/09 11:43:21;;;;;;;4.90;2.62;;;;;;;;;;1857422;77;21722;-80
2021/12/09 11:45:52;;;;;;;5.83;2.62;;;;;;;;;;1861247;76;21153;-81
2021/12/09 11:48:22;;;;;;;4.72;2.37;;;;;;;;;;1857295;77;21091;-81
2021/12/09 11:50:54;;;;;;;5.22;2.12;;;;;;;;;;1865948;77;21201;-82
2021/12/09 11:53:37;;;;;;;4.33;2.55;;;;;;;;;;1861574;77;21072;-82
2021/12/09 11:56:46;;;;;;;5.58;2.70;;;;;;;;;;1872245;75;21122;-83
2021/12/09 11:58:57;;;;;;;10.23;2.92;;;;;;;;;;1860451;76;21660;-82
2021/12/09 12:12:01;;;;;;;8.08;2.50;;;;;;;;;;1798741;79;21262;-82
2021/12/09 12:14:36;;;;;;;9.40;3.10;;;;;;;;;;1797157;78;21218;-83
2021/12/09 12:19:40;;;;;;;8.08;3.20;;;;;;;;;;1797519;79;21206;-82
2021/12/09 12:22:28;;;;;;;6.55;3.60;;;;;;;;;;1798576;77;21186;-83
2021/12/09 12:25:31;;;;;;;8.98;3.85;;;;;;;;;;1798191;79;21206;-80
2021/12/09 12:27:16;;;;;;;9.10;3.65;;;;;;;;;;1795670;79;21179;-81
2021/12/09 12:37:24;;;;;;;8.85;4.70;;;;;;;;;;1813998;78;21546;-81
2021/12/09 12:39:59;;;;;;;10.05;4.87;;;;;;;;;;1822183;77;21203;-81
2021/12/09 12:42:41;;;;;;;11.40;5.67;;;;;;;;;;1819012;78;21147;-81
2021/12/09 12:45:03;;;;;;;13.35;7.60;;;;;;;;;;1818668;78;21233;-79
2021/12/09 12:47:40;;;;;;;11.00;6.00;;;;;;;;;;1858647;75;21209;-81
2021/12/09 12:50:05;;;;;;;10.55;5.42;;;;;;;;;;1860553;76;21744;-82
2021/12/09 12:52:37;;;;;;;9.68;5.70;;;;;;;;;;1861229;76;21060;-82
2021/12/09 12:55:11;;;;;;;11.80;5.80;;;;;;;;;;1858371;77;21198;-82
2021/12/09 12:57:42;;;;;;;11.45;5.42;;;;;;;;;;1868221;76;21654;-82
2021/12/09 13:00:13;;;;;;;12.25;5.58;;;;;;;;;;1861736;77;21141;-80
2021/12/09 13:05:45;;;;;;;11.25;5.33;;;;;;;;;;1802139;78;21572;-82
2021/12/09 13:10:22;;;;;;;10.85;4.92;;;;;;;;;;1853912;76;21090;-82
2021/12/09 13:12:56;;;;;;;11.53;4.40;;;;;;;;;;1855739;76;21222;-83
2021/12/09 13:15:30;;;;;;;8.90;4.62;;;;;;;;;;1873405;76;21746;-83
2021/12/09 13:18:03;;;;;;;8.20;4.00;;;;;;;;;;1856465;77;21182;-82
2021/12/09 13:20:28;;;;;;;8.60;3.37;;;;;;;;;;1861435;76;21662;-83
2021/12/09 13:23:00;;;;;;;7.72;3.90;;;;;;;;;;1855066;75;21166;-82
2021/12/09 13:25:33;;;;;;;6.80;3.37;;;;;;;;;;1853511;76;21115;-82
2021/12/09 13:28:04;;;;;;;6.90;3.37;;;;;;;;;;1875249;76;21717;-82
2021/12/09 13:46:06;;;;;;;6.00;3.70;;;;;;;;;;1864343;76;21614;-82
2021/12/09 13:48:26;;;;;;;7.22;3.90;;;;;;;;;;1842221;77;21850;-81
2021/12/09 13:51:12;;;;;;;11.50;4.42;;;;;;;;;;1862041;76;21646;-82
2021/12/09 13:55:53;;;;;;;6.80;3.55;;;;;;;;;;1863451;75;21091;-81
2021/12/09 13:58:23;;;;;;;9.78;3.72;;;;;;;;;;1867968;76;21108;-80
2021/12/09 14:00:53;;;;;;;7.83;3.60;;;;;;;;;;1869189;76;21555;-81
2021/12/09 14:03:25;;;;;;;6.47;3.50;;;;;;;;;;1866448;76;21103;-82
2021/12/09 14:05:58;;;;;;;8.48;3.90;;;;;;;;;;1865130;76;21166;-81
2021/12/09 14:08:33;;;;;;;8.30;3.75;;;;;;;;;;1854240;77;21128;-81
2021/12/09 14:11:04;;;;;;;6.42;3.87;;;;;;;;;;1852562;77;21107;-81
2021/12/09 14:13:35;;;;;;;10.72;4.00;;;;;;;;;;1859108;76;21142;-81
2021/12/09 14:16:25;;;;;;;7.25;4.08;;;;;;;;;;1862794;76;21395;-82
2021/12/09 14:21:11;;;;;;;6.60;3.60;;;;;;;;;;1845874;77;21143;-80
2021/12/09 14:23:41;;;;;;;6.28;3.40;;;;;;;;;;1851601;76;21076;-82
2021/12/09 14:26:11;;;;;;;8.08;3.55;;;;;;;;;;1866060;76;21157;-80
2021/12/09 14:28:41;;;;;;;7.72;3.40;;;;;;;;;;1867226;75;21115;-80
2021/12/09 14:31:11;;;;;;;7.42;3.50;;;;;;;;;;1865605;75;21143;-83
2021/12/09 14:33:41;;;;;;;6.70;3.12;;;;;;;;;;1841878;77;21625;-82
2021/12/09 14:36:13;;;;;;;6.50;3.17;;;;;;;;;;1862526;77;21220;-82
2021/12/09 14:38:43;;;;;;;5.58;3.20;;;;;;;;;;1835114;77;21149;-82
2021/12/09 14:41:17;;;;;;;6.28;3.40;;;;;;;;;;1848371;77;21225;-82
2021/12/09 14:43:50;;;;;;;7.15;3.30;;;;;;;;;;1845147;77;21154;-82
2021/12/09 14:46:21;;;;;;;9.18;3.60;;;;;;;;;;1868155;75;21159;-82
2021/12/09 14:48:52;;;;;;;7.17;3.25;;;;;;;;;;1881764;76;21098;-82
2021/12/09 14:51:22;;;;;;;8.13;3.27;;;;;;;;;;1886005;76;21515;-82
2021/12/09 14:53:52;;;;;;;6.42;3.50;;;;;;;;;;1884838;76;21548;-83
2021/12/09 14:56:23;;;;;;;6.72;3.47;;;;;;;;;;1890911;76;21079;-82
2021/12/09 14:58:55;;;;;;;7.00;3.72;;;;;;;;;;1883771;76;21143;-82
2021/12/09 15:01:29;;;;;;;6.78;3.42;;;;;;;;;;1861594;76;21518;-82
2021/12/09 15:04:02;;;;;;;6.28;3.10;;;;;;;;;;1882445;75;21099;-83
2021/12/09 15:06:32;;;;;;;9.03;3.50;;;;;;;;;;1891837;76;21170;-82
2021/12/09 15:09:14;;;;;;;7.62;3.25;;;;;;;;;;1848776;77;21138;-83
2021/12/09 15:11:39;;;;;;;9.33;3.37;;;;;;;;;;1819723;78;22316;-82
2021/12/09 15:14:11;;;;;;;6.72;3.00;;;;;;;;;;1843918;77;21220;-82
2021/12/09 15:16:41;;;;;;;8.28;3.00;;;;;;;;;;1828240;77;21108;-82
2021/12/09 15:19:12;;;;;;;6.87;3.02;;;;;;;;;;1845970;77;21080;-82
2021/12/09 15:21:42;;;;;;;6.33;3.08;;;;;;;;;;1835517;76;21175;-82
2021/12/09 15:24:14;;;;;;;6.85;3.22;;;;;;;;;;1821363;77;21847;-82
2021/12/09 15:26:45;;;;;;;8.08;2.55;;;;;;;;;;1796726;79;21162;-82
2021/12/09 15:29:17;;;;;;;6.28;2.95;;;;;;;;;;1831861;77;21151;-82
2021/12/09 15:31:49;;;;;;;4.90;2.77;;;;;;;;;;1817788;79;21156;-82
2021/12/09 15:34:22;;;;;;;8.55;2.83;;;;;;;;;;1837327;77;21147;-84
2021/12/09 15:36:53;;;;;;;6.37;2.90;;;;;;;;;;1841764;76;21276;-81
2021/12/09 15:39:24;;;;;;;7.33;3.17;;;;;;;;;;1844700;77;21268;-82
2021/12/09 15:41:55;;;;;;;6.60;2.67;;;;;;;;;;1847360;77;21138;-82